createdAt,value
2018-12-09T00:01:08.677Z,5.92
2018-12-09T00:03:36.176Z,4.03
2018-12-09T00:06:04.662Z,3.87
2018-12-09T00:08:32.144Z,5.47
2018-12-09T00:10:59.727Z,2.87
2018-12-09T00:13:27.214Z,3.50
2018-12-09T00:15:54.702Z,4.33
2018-12-09T00:18:22.185Z,4.87
2018-12-09T00:20:49.733Z,3.50
2018-12-09T00:23:17.226Z,5.70
2018-12-09T00:25:46.737Z,3.60
2018-12-09T00:28:14.224Z,3.73
2018-12-09T00:30:41.809Z,4.90
2018-12-09T00:33:09.301Z,7.72
2018-12-09T00:35:37.631Z,7.83
2018-12-09T00:38:05.169Z,2.67
2018-12-09T00:40:32.650Z,3.80
2018-12-09T00:43:00.237Z,3.80
2018-12-09T00:45:27.716Z,3.40
2018-12-09T00:47:55.189Z,2.50
2018-12-09T00:50:22.674Z,2.55
2018-12-09T00:52:50.248Z,3.45
2018-12-09T00:55:17.753Z,5.10
2018-12-09T00:57:46.315Z,3.55
2018-12-09T01:00:13.799Z,3.13
2018-12-09T01:02:42.924Z,4.12
2018-12-09T01:05:10.648Z,4.22
2018-12-09T01:07:38.210Z,4.40
2018-12-09T01:10:05.948Z,5.90
2018-12-09T01:12:33.451Z,6.90
2018-12-09T01:15:00.950Z,8.27
2018-12-09T01:17:28.521Z,7.55
2018-12-09T01:19:56.072Z,14.83
2018-12-09T01:22:23.597Z,11.10
2018-12-09T01:24:51.077Z,10.47
2018-12-09T01:27:18.745Z,11.65
2018-12-09T01:29:46.726Z,8.03
2018-12-09T01:32:14.330Z,10.08
2018-12-09T01:34:41.821Z,10.00
2018-12-09T01:37:09.327Z,12.93
2018-12-09T01:39:36.825Z,9.93
2018-12-09T01:42:04.835Z,11.70
2018-12-09T01:44:32.316Z,13.35
2018-12-09T01:46:59.834Z,12.10
2018-12-09T01:49:27.330Z,6.50
2018-12-09T01:51:54.858Z,10.70
2018-12-09T01:54:22.351Z,12.60
2018-12-09T01:56:49.929Z,9.17
2018-12-09T01:59:17.434Z,13.48
2018-12-09T02:01:44.981Z,9.48
2018-12-09T02:04:12.484Z,13.55
2018-12-09T02:06:40.113Z,13.03
2018-12-09T02:09:07.677Z,13.55
2018-12-09T02:11:35.310Z,14.80
2018-12-09T02:14:02.794Z,13.53
2018-12-09T02:16:30.877Z,17.77
2018-12-09T02:19:14.102Z,6.50
2018-12-09T02:21:42.106Z,14.03
2018-12-09T02:24:09.589Z,15.75
2018-12-09T02:26:37.081Z,12.23
2018-12-09T02:29:04.757Z,9.90
2018-12-09T02:31:32.263Z,14.47
2018-12-09T02:33:59.921Z,13.58
2018-12-09T02:36:27.501Z,11.75
2018-12-09T02:38:55.009Z,18.27
2018-12-09T02:41:22.625Z,11.57
2018-12-09T02:43:50.118Z,15.20
2018-12-09T02:46:17.612Z,13.43
2018-12-09T02:48:45.113Z,14.75
2018-12-09T02:51:12.667Z,12.30
2018-12-09T02:53:40.172Z,15.80
2018-12-09T02:56:07.748Z,11.03
2018-12-09T02:58:35.241Z,17.07
2018-12-09T03:01:03.211Z,14.25
2018-12-09T03:03:30.961Z,13.78
2018-12-09T03:05:58.577Z,15.78
2018-12-09T03:08:26.067Z,15.53
2018-12-09T03:10:53.647Z,13.05
2018-12-09T03:13:21.531Z,10.40
2018-12-09T03:15:49.089Z,12.03
2018-12-09T03:18:16.670Z,8.75
2018-12-09T03:20:44.160Z,9.90
2018-12-09T03:23:11.634Z,11.65
2018-12-09T03:25:39.218Z,10.55
2018-12-09T03:28:06.697Z,12.23
2018-12-09T03:30:34.325Z,13.38
2018-12-09T03:33:01.883Z,12.50
2018-12-09T03:35:29.463Z,10.58
2018-12-09T03:37:57.114Z,7.65
2018-12-09T03:40:24.590Z,7.62
2018-12-09T03:42:52.080Z,10.82
2018-12-09T03:45:19.578Z,6.15
2018-12-09T03:47:47.685Z,12.13
2018-12-09T03:50:17.172Z,7.95
2018-12-09T03:52:45.601Z,9.00
2018-12-09T03:55:14.939Z,5.70
2018-12-09T03:57:44.180Z,10.15
2018-12-09T04:00:12.482Z,9.05
2018-12-09T04:02:40.418Z,11.97
2018-12-09T04:05:08.454Z,9.60
2018-12-09T04:07:36.908Z,10.68
2018-12-09T04:10:05.169Z,13.90
2018-12-09T04:12:35.650Z,10.13
2018-12-09T04:15:03.232Z,15.60
2018-12-09T04:17:32.867Z,11.88
2018-12-09T04:20:01.346Z,8.85
2018-12-09T04:22:30.872Z,10.05
2018-12-09T04:25:00.901Z,10.50
2018-12-09T04:27:29.703Z,6.70
2018-12-09T04:29:57.759Z,4.85
2018-12-09T04:32:26.814Z,5.33
2018-12-09T04:34:55.526Z,8.53
2018-12-09T04:37:23.018Z,8.00
2018-12-09T04:39:51.699Z,13.78
2018-12-09T04:42:21.957Z,12.98
2018-12-09T04:44:52.313Z,12.63
2018-12-09T04:47:21.035Z,13.55
2018-12-09T04:49:49.189Z,9.25
2018-12-09T04:52:17.482Z,10.75
2018-12-09T04:54:46.207Z,8.75
2018-12-09T04:57:15.423Z,9.35
2018-12-09T04:59:47.672Z,9.13
2018-12-09T05:02:15.483Z,14.78
2018-12-09T05:04:43.784Z,12.70
2018-12-09T05:07:12.053Z,14.83
2018-12-09T05:09:42.006Z,11.73
2018-12-09T05:12:10.325Z,8.88
2018-12-09T05:14:38.101Z,14.83
2018-12-09T05:17:06.213Z,10.05
2018-12-09T05:19:34.899Z,11.73
2018-12-09T05:22:02.686Z,7.03
2018-12-09T05:24:30.462Z,7.78
2018-12-09T05:27:00.354Z,8.73
2018-12-09T05:29:30.359Z,8.30
2018-12-09T05:32:00.297Z,11.20
2018-12-09T05:34:28.126Z,9.50
2018-12-09T05:36:55.946Z,7.87
2018-12-09T05:39:23.933Z,14.15
2018-12-09T05:41:53.598Z,9.98
2018-12-09T05:44:21.631Z,10.35
2018-12-09T05:46:50.374Z,12.03
2018-12-09T05:49:17.881Z,13.68
2018-12-09T05:51:47.540Z,9.80
2018-12-09T05:54:15.875Z,13.38
2018-12-09T05:56:44.264Z,11.85
2018-12-09T05:59:12.289Z,4.90
2018-12-09T06:01:41.707Z,8.28
2018-12-09T06:04:09.471Z,6.90
2018-12-09T06:06:37.908Z,9.00
2018-12-09T06:09:05.859Z,13.25
2018-12-09T06:11:36.391Z,8.53
2018-12-09T06:14:07.007Z,8.68
2018-12-09T06:16:36.078Z,9.63
2018-12-09T06:19:04.363Z,9.68
2018-12-09T06:21:32.889Z,10.60
2018-12-09T06:24:01.068Z,12.10
2018-12-09T06:26:30.445Z,8.10
2018-12-09T06:28:57.963Z,8.63
2018-12-09T06:31:27.501Z,9.18
2018-12-09T06:33:55.005Z,10.32
2018-12-09T06:36:24.753Z,6.83
2018-12-09T06:38:54.188Z,7.80
2018-12-09T06:41:23.340Z,5.87
2018-12-09T06:43:52.356Z,4.08
2018-12-09T06:46:22.564Z,12.78
2018-12-09T06:48:51.318Z,10.28
2018-12-09T06:51:20.217Z,11.83
2018-12-09T06:53:49.238Z,9.65
2018-12-09T06:56:18.927Z,9.63
2018-12-09T06:58:47.368Z,8.67
2018-12-09T07:01:15.237Z,6.47
2018-12-09T07:03:43.442Z,6.87
2018-12-09T07:06:11.760Z,7.72
2018-12-09T07:08:41.261Z,5.80
2018-12-09T07:11:09.263Z,4.95
2018-12-09T07:13:37.442Z,7.72
2018-12-09T07:16:05.238Z,9.20
2018-12-09T07:18:33.432Z,5.65
2018-12-09T07:21:00.951Z,9.23
2018-12-09T07:23:29.199Z,6.25
2018-12-09T07:25:58.623Z,6.45
2018-12-09T07:28:28.071Z,6.92
2018-12-09T07:30:57.867Z,6.90
2018-12-09T07:33:27.383Z,4.97
2018-12-09T07:35:55.202Z,7.17
2018-12-09T07:38:23.501Z,5.72
2018-12-09T07:40:51.010Z,5.65
2018-12-09T07:43:20.966Z,3.87
2018-12-09T07:45:50.531Z,4.92
2018-12-09T07:48:18.855Z,5.90
2018-12-09T07:50:47.747Z,5.28
2018-12-09T07:53:15.628Z,5.45
2018-12-09T07:55:43.913Z,10.38
2018-12-09T07:58:13.391Z,8.00
2018-12-09T08:00:42.257Z,5.20
2018-12-09T08:03:11.278Z,5.85
2018-12-09T08:05:40.767Z,8.05
2018-12-09T08:08:09.901Z,6.50
2018-12-09T08:10:37.970Z,4.03
2018-12-09T08:13:06.456Z,4.35
2018-12-09T08:15:35.040Z,2.97
2018-12-09T08:18:07.013Z,3.55
2018-12-09T08:20:34.774Z,6.33
2018-12-09T08:23:03.047Z,3.80
2018-12-09T08:25:30.902Z,1.27
2018-12-09T08:27:59.122Z,3.83
2018-12-09T08:30:26.862Z,3.57
2018-12-09T08:32:55.699Z,3.67
2018-12-09T08:35:25.270Z,4.05
2018-12-09T08:37:53.496Z,5.70
2018-12-09T08:40:20.997Z,3.20
2018-12-09T08:42:49.453Z,1.22
2018-12-09T08:45:18.715Z,0.72
2018-12-09T08:47:47.535Z,1.92
2018-12-09T08:50:15.092Z,1.70
2018-12-09T08:52:43.098Z,1.97
2018-12-09T08:55:11.890Z,0.80
2018-12-09T08:57:39.544Z,1.50
2018-12-09T09:00:08.807Z,2.67
2018-12-09T09:02:37.152Z,1.12
2018-12-09T09:05:05.575Z,1.90
2018-12-09T09:07:34.615Z,1.27
2018-12-09T09:10:03.346Z,1.50
2018-12-09T09:12:31.350Z,1.00
2018-12-09T09:15:00.251Z,0.93
2018-12-09T09:17:29.309Z,1.53
2018-12-09T09:19:58.398Z,1.87
2018-12-09T09:22:26.838Z,2.02
2018-12-09T09:24:55.776Z,1.42
2018-12-09T09:27:24.065Z,0.70
2018-12-09T09:29:54.978Z,1.13
2018-12-09T09:32:22.837Z,2.23
2018-12-09T09:34:52.809Z,0.50
2018-12-09T09:37:20.787Z,0.50
2018-12-09T09:39:49.921Z,2.37
2018-12-09T09:42:18.302Z,1.20
2018-12-09T09:44:46.943Z,2.30
2018-12-09T09:47:15.777Z,0.70
2018-12-09T09:49:45.005Z,1.47
2018-12-09T09:52:14.660Z,2.77
2018-12-09T09:54:42.168Z,2.17
2018-12-09T09:57:09.944Z,1.63
2018-12-09T09:59:45.259Z,2.03
2018-12-09T10:02:14.354Z,0.53
2018-12-09T10:04:42.488Z,2.00
2018-12-09T10:07:11.541Z,0.60
2018-12-09T10:09:40.563Z,1.83
2018-12-09T10:12:08.274Z,2.70
2018-12-09T10:14:38.175Z,0.83
2018-12-09T10:17:06.236Z,3.63
2018-12-09T10:19:34.327Z,2.57
2018-12-09T10:22:02.201Z,0.60
2018-12-09T10:24:30.001Z,1.00
2018-12-09T10:27:00.048Z,0.50
2018-12-09T10:29:28.664Z,2.40
2018-12-09T10:32:00.159Z,0.87
2018-12-09T10:34:28.263Z,1.07
2018-12-09T10:36:56.036Z,1.57
2018-12-09T10:39:24.192Z,0.60
2018-12-09T10:41:52.963Z,2.30
2018-12-09T10:44:22.261Z,1.20
2018-12-09T10:46:51.004Z,2.90
2018-12-09T10:49:18.810Z,0.40
2018-12-09T10:51:52.978Z,0.80
2018-12-09T10:54:23.977Z,0.65
2018-12-09T10:56:51.575Z,1.05
2018-12-09T10:59:20.193Z,0.75
2018-12-09T11:01:54.520Z,0.75
2018-12-09T11:04:23.793Z,1.37
2018-12-09T11:06:53.251Z,1.45
2018-12-09T11:09:21.556Z,2.35
2018-12-09T11:11:50.651Z,0.80
2018-12-09T11:14:20.873Z,2.52
2018-12-09T11:16:49.340Z,3.58
2018-12-09T11:19:19.238Z,2.05
2018-12-09T11:21:49.271Z,2.42
2018-12-09T11:24:18.818Z,1.55
2018-12-09T11:26:46.904Z,2.77
2018-12-09T11:29:15.281Z,2.25
2018-12-09T11:31:43.078Z,1.85
2018-12-09T11:34:10.879Z,3.75
2018-12-09T11:36:39.267Z,5.60
2018-12-09T11:39:09.808Z,4.10
2018-12-09T11:41:38.724Z,1.30
2018-12-09T11:44:07.126Z,5.37
2018-12-09T11:46:35.931Z,3.85
2018-12-09T11:49:04.126Z,2.20
2018-12-09T11:51:31.913Z,2.70
2018-12-09T11:54:00.315Z,2.55
2018-12-09T11:56:29.842Z,2.92
2018-12-09T11:58:58.710Z,7.47
2018-12-09T12:01:27.461Z,3.85
2018-12-09T12:03:56.289Z,5.07
2018-12-09T12:06:24.255Z,4.78
2018-12-09T12:08:53.019Z,4.87
2018-12-09T12:11:21.890Z,5.00
2018-12-09T12:13:49.946Z,5.78
2018-12-09T12:16:18.808Z,8.40
2018-12-09T12:18:48.428Z,3.37
2018-12-09T12:21:16.738Z,5.00
2018-12-09T12:23:45.256Z,5.28
2018-12-09T12:26:15.870Z,4.62
2018-12-09T12:28:45.575Z,5.12
2018-12-09T12:31:14.390Z,8.90
2018-12-09T12:33:41.927Z,4.10
2018-12-09T12:36:10.445Z,4.90
2018-12-09T12:38:39.199Z,4.65
2018-12-09T12:41:07.306Z,6.10
2018-12-09T12:43:36.542Z,6.30
2018-12-09T12:46:04.801Z,4.87
2018-12-09T12:48:34.415Z,8.58
2018-12-09T12:51:03.300Z,6.70
2018-12-09T12:53:31.409Z,6.80
2018-12-09T12:56:01.044Z,5.70
2018-12-09T12:58:31.218Z,5.67
2018-12-09T13:01:01.199Z,3.30
2018-12-09T13:03:30.945Z,4.22
2018-12-09T13:05:58.987Z,5.05
2018-12-09T13:08:27.344Z,8.00
2018-12-09T13:10:57.270Z,7.53
2018-12-09T13:13:26.061Z,6.67
2018-12-09T13:15:54.180Z,7.90
2018-12-09T13:18:24.258Z,5.50
2018-12-09T13:20:52.656Z,6.72
2018-12-09T13:23:21.501Z,7.50
2018-12-09T13:25:50.365Z,5.90
2018-12-09T13:28:18.621Z,5.80
2018-12-09T13:30:48.215Z,5.95
2018-12-09T13:33:17.363Z,7.60
2018-12-09T13:35:47.533Z,8.05
2018-12-09T13:38:18.367Z,8.08
2018-12-09T13:40:46.246Z,7.25
2018-12-09T13:43:19.647Z,8.20
2018-12-09T13:45:47.862Z,5.03
2018-12-09T13:48:15.486Z,5.20
2018-12-09T13:50:43.724Z,8.73
2018-12-09T13:53:14.089Z,7.12
2018-12-09T13:55:44.504Z,6.83
2018-12-09T13:58:12.726Z,5.72
2018-12-09T14:00:42.149Z,6.62
2018-12-09T14:03:11.556Z,6.22
2018-12-09T14:05:40.594Z,5.65
2018-12-09T14:08:10.146Z,6.75
2018-12-09T14:10:40.145Z,7.03
2018-12-09T14:13:10.708Z,6.95
2018-12-09T14:15:40.736Z,5.35
2018-12-09T14:18:08.237Z,6.78
2018-12-09T14:20:37.324Z,7.62
2018-12-09T14:23:05.721Z,7.80
2018-12-09T14:25:34.538Z,6.78
2018-12-09T14:28:02.043Z,5.55
2018-12-09T14:30:31.131Z,7.53
2018-12-09T14:33:01.270Z,8.08
2018-12-09T14:35:28.777Z,8.30
2018-12-09T14:37:56.863Z,7.33
2018-12-09T14:40:24.607Z,5.25
2018-12-09T14:42:53.844Z,10.55
2018-12-09T14:45:22.991Z,10.45
2018-12-09T14:47:50.917Z,6.37
2018-12-09T14:50:23.406Z,6.78
2018-12-09T14:52:51.135Z,9.33
2018-12-09T14:55:22.511Z,8.05
2018-12-09T14:57:51.571Z,11.88
2018-12-09T15:00:19.302Z,6.40
2018-12-09T15:02:47.592Z,5.70
2018-12-09T15:05:16.688Z,7.00
2018-12-09T15:07:47.854Z,8.58
2018-12-09T15:10:17.871Z,4.17
2018-12-09T15:12:45.793Z,9.15
2018-12-09T15:15:15.930Z,6.08
2018-12-09T15:17:44.058Z,5.67
2018-12-09T15:20:13.563Z,6.40
2018-12-09T15:22:41.606Z,7.05
2018-12-09T15:25:09.529Z,5.47
2018-12-09T15:27:37.554Z,5.72
2018-12-09T15:30:07.398Z,8.68
2018-12-09T15:32:36.936Z,7.00
2018-12-09T15:35:05.583Z,6.33
2018-12-09T15:37:34.313Z,9.20
2018-12-09T15:40:02.342Z,5.12
2018-12-09T15:42:31.485Z,9.30
2018-12-09T15:44:59.305Z,6.70
2018-12-09T15:47:27.882Z,7.28
2018-12-09T15:49:57.526Z,7.75
2018-12-09T15:52:25.240Z,8.63
2018-12-09T15:54:55.427Z,7.92
2018-12-09T15:57:24.962Z,9.75
2018-12-09T15:59:53.862Z,7.37
2018-12-09T16:02:23.612Z,8.93
2018-12-09T16:04:51.936Z,7.85
2018-12-09T16:07:21.188Z,9.95
2018-12-09T16:09:49.551Z,5.55
2018-12-09T16:12:18.259Z,8.00
2018-12-09T16:14:47.303Z,9.20
2018-12-09T16:17:15.090Z,5.00
2018-12-09T16:19:42.571Z,7.33
2018-12-09T16:22:12.323Z,6.17
2018-12-09T16:24:40.419Z,9.58
2018-12-09T16:27:08.837Z,5.53
2018-12-09T16:29:37.218Z,9.20
2018-12-09T16:32:04.713Z,6.58
2018-12-09T16:34:34.036Z,8.23
2018-12-09T16:37:01.517Z,4.37
2018-12-09T16:39:30.885Z,5.85
2018-12-09T16:41:59.946Z,7.87
2018-12-09T16:44:28.610Z,5.95
2018-12-09T16:46:56.739Z,6.97
2018-12-09T16:49:25.544Z,8.73
2018-12-09T16:51:55.282Z,10.25
2018-12-09T16:54:23.673Z,9.10
2018-12-09T16:56:51.456Z,7.08
2018-12-09T16:59:20.273Z,7.20
2018-12-09T17:01:50.029Z,5.25
2018-12-09T17:04:17.701Z,7.53
2018-12-09T17:06:47.535Z,13.18
2018-12-09T17:09:16.809Z,6.90
2018-12-09T17:11:45.968Z,9.30
2018-12-09T17:14:14.530Z,12.70
2018-12-09T17:16:42.859Z,11.43
2018-12-09T17:19:12.479Z,11.50
2018-12-09T17:21:41.600Z,10.88
2018-12-09T17:24:10.609Z,10.05
2018-12-09T17:26:38.871Z,13.00
2018-12-09T17:29:08.623Z,11.05
2018-12-09T17:31:38.151Z,12.43
2018-12-09T17:34:07.383Z,11.17
2018-12-09T17:36:36.728Z,10.65
2018-12-09T17:39:07.753Z,13.78
2018-12-09T17:41:35.878Z,12.93
2018-12-09T17:44:05.305Z,12.35
2018-12-09T17:46:33.668Z,10.15
2018-12-09T17:49:01.687Z,11.40
2018-12-09T17:51:29.646Z,12.10
2018-12-09T17:53:59.216Z,12.35
2018-12-09T17:56:28.490Z,14.45
2018-12-09T17:58:57.803Z,11.15
2018-12-09T18:01:25.615Z,13.17
2018-12-09T18:03:54.708Z,15.57
2018-12-09T18:06:24.344Z,12.03
2018-12-09T18:08:52.129Z,11.25
2018-12-09T18:11:19.925Z,12.07
2018-12-09T18:13:47.640Z,12.37
2018-12-09T18:16:15.907Z,10.32
2018-12-09T18:18:45.044Z,11.67
2018-12-09T18:21:14.363Z,11.90
2018-12-09T18:23:43.350Z,13.40
2018-12-09T18:26:11.344Z,15.13
2018-12-09T18:28:39.408Z,11.77
2018-12-09T18:31:09.471Z,9.57
2018-12-09T18:33:38.795Z,12.33
2018-12-09T18:36:06.794Z,16.47
2018-12-09T18:38:34.814Z,12.80
2018-12-09T18:41:03.050Z,12.83
2018-12-09T18:43:32.508Z,18.23
2018-12-09T18:46:00.374Z,14.35
2018-12-09T18:48:28.502Z,16.43
2018-12-09T18:50:58.204Z,11.70
2018-12-09T18:53:25.998Z,16.30
2018-12-09T18:55:55.098Z,11.20
2018-12-09T18:58:23.108Z,14.13
2018-12-09T19:00:52.612Z,9.23
2018-12-09T19:03:20.713Z,13.50
2018-12-09T19:05:48.821Z,14.23
2018-12-09T19:08:18.954Z,15.87
2018-12-09T19:10:47.350Z,19.90
2018-12-09T19:13:15.354Z,12.47
2018-12-09T19:15:46.895Z,12.97
2018-12-09T19:18:15.398Z,16.10
2018-12-09T19:20:44.790Z,11.10
2018-12-09T19:23:13.564Z,15.27
2018-12-09T19:25:43.093Z,17.77
2018-12-09T19:28:12.673Z,13.37
2018-12-09T19:30:48.215Z,13.67
2018-12-09T19:33:13.147Z,13.93
2018-12-09T19:35:42.702Z,13.40
2018-12-09T19:38:11.570Z,10.50
2018-12-09T19:40:39.389Z,12.07
2018-12-09T19:43:07.175Z,14.85
2018-12-09T19:45:35.209Z,14.27
2018-12-09T19:48:05.231Z,12.97
2018-12-09T19:50:33.702Z,11.20
2018-12-09T19:53:01.219Z,15.43
2018-12-09T19:55:30.421Z,13.03
2018-12-09T19:57:57.898Z,11.00
2018-12-09T20:00:28.063Z,13.33
2018-12-09T20:02:56.999Z,12.85
2018-12-09T20:05:24.827Z,15.72
2018-12-09T20:07:52.603Z,13.03
2018-12-09T20:10:20.944Z,14.63
2018-12-09T20:12:50.930Z,12.77
2018-12-09T20:15:20.970Z,10.83
2018-12-09T20:17:49.623Z,12.93
2018-12-09T20:20:18.786Z,14.13
2018-12-09T20:22:49.561Z,12.43
2018-12-09T20:25:20.157Z,13.97
2018-12-09T20:27:48.743Z,15.60
2018-12-09T20:30:17.515Z,11.93
2018-12-09T20:32:46.308Z,11.77
2018-12-09T20:35:15.442Z,12.93
2018-12-09T20:37:44.779Z,11.20
2018-12-09T20:40:13.236Z,11.60
2018-12-09T20:42:48.185Z,11.73
2018-12-09T20:45:14.305Z,11.70
2018-12-09T20:47:42.938Z,14.67
2018-12-09T20:50:11.376Z,8.93
2018-12-09T20:52:40.275Z,14.73
2018-12-09T20:55:09.272Z,18.07
2018-12-09T20:57:38.801Z,12.87
2018-12-09T21:00:09.101Z,9.33
2018-12-09T21:02:38.713Z,10.17
2018-12-09T21:05:08.951Z,13.50
2018-12-09T21:07:37.308Z,15.73
2018-12-09T21:10:08.239Z,14.53
2018-12-09T21:12:36.675Z,12.53
2018-12-09T21:15:05.982Z,6.83
2018-12-09T21:17:33.478Z,12.93
2018-12-09T21:20:04.123Z,9.00
2018-12-09T21:22:32.855Z,15.90
2018-12-09T21:25:01.062Z,12.73
2018-12-09T21:27:28.794Z,10.17
2018-12-09T21:29:58.347Z,9.33
2018-12-09T21:32:28.496Z,11.80
2018-12-09T21:34:57.877Z,17.33
2018-12-09T21:37:27.721Z,14.00
2018-12-09T21:39:56.547Z,11.43
2018-12-09T21:42:25.450Z,10.03
2018-12-09T21:44:54.164Z,10.97
2018-12-09T21:47:25.166Z,16.00
2018-12-09T21:49:53.958Z,9.47
2018-12-09T21:52:22.682Z,15.07
2018-12-09T21:54:51.609Z,14.47
2018-12-09T21:57:21.525Z,14.27
2018-12-09T21:59:50.443Z,14.23
2018-12-09T22:02:23.038Z,12.33
2018-12-09T22:04:50.511Z,12.37
2018-12-09T22:07:20.046Z,10.37
2018-12-09T22:09:49.003Z,14.93
2018-12-09T22:12:17.224Z,10.80
2018-12-09T22:14:46.979Z,12.17
2018-12-09T22:17:16.166Z,10.50
2018-12-09T22:19:45.767Z,10.77
2018-12-09T22:22:15.399Z,10.33
2018-12-09T22:24:44.707Z,11.33
2018-12-09T22:27:12.494Z,9.00
2018-12-09T22:29:41.308Z,12.20
2018-12-09T22:32:10.645Z,15.37
2018-12-09T22:34:40.300Z,13.27
2018-12-09T22:37:08.432Z,6.60
2018-12-09T22:39:36.218Z,13.93
2018-12-09T22:42:04.842Z,15.57
2018-12-09T22:44:34.146Z,13.53
2018-12-09T22:47:03.087Z,10.50
2018-12-09T22:49:32.686Z,10.27
2018-12-09T22:52:01.122Z,9.07
2018-12-09T22:54:29.915Z,9.03
2018-12-09T22:56:57.508Z,8.77
2018-12-09T22:59:26.830Z,8.03
2018-12-09T23:02:00.617Z,9.63
2018-12-09T23:04:30.602Z,8.20
2018-12-09T23:07:00.688Z,6.90
2018-12-09T23:09:30.546Z,10.47
2018-12-09T23:11:59.151Z,8.73
2018-12-09T23:14:26.623Z,10.87
2018-12-09T23:16:54.891Z,13.70
2018-12-09T23:19:23.257Z,11.73
2018-12-09T23:21:52.755Z,13.13
2018-12-09T23:24:22.743Z,9.03
2018-12-09T23:26:52.389Z,11.00
2018-12-09T23:29:19.902Z,9.03
2018-12-09T23:31:48.407Z,6.97
2018-12-09T23:34:18.735Z,12.73
2018-12-09T23:36:49.353Z,14.27
2018-12-09T23:39:16.818Z,6.17
2018-12-09T23:41:46.565Z,12.13
2018-12-09T23:44:15.310Z,10.73
2018-12-09T23:46:44.498Z,9.70
2018-12-09T23:49:14.230Z,12.30
2018-12-09T23:51:44.323Z,7.67
2018-12-09T23:54:12.653Z,10.37
2018-12-09T23:56:40.711Z,8.30
2018-12-09T23:59:10.986Z,13.83
